This is the latest recevied weather packets stored in our database for station/object LRBM. If no packets are shown the sender has not sent any weather packets the latest 10 day(s).
| Time | Temp. | Humidity | Pressure | Rain* | Wind** | Luminosity | Snow |
|---|---|---|---|---|---|---|---|
| 1777610015 | 3.89° C | 56% | 1026 hPa | - | - | - | - |
| 1777609115 | 2.22° C | 65% | 1026 hPa | - | - | - | - |
| 1777608216 | 2.22° C | 65% | 1026 hPa | - | - | - | - |
| 1777607315 | 2.22° C | 60% | 1026 hPa | - | - | - | - |
| 1777606415 | 2.22° C | 60% | 1026 hPa | - | - | - | - |
| 1777605515 | 2.22° C | 60% | 1026 hPa | - | - | - | - |
| 1777604616 | 2.22° C | 60% | 1026 hPa | - | - | - | - |
| 1777603716 | 2.78° C | 56% | 1026 hPa | - | - | - | - |
| 1777602815 | 2.78° C | 56% | 1026 hPa | - | - | - | - |
| 1777601915 | 2.22° C | 60% | 1026 hPa | - | - | - | - |
| 1777601015 | 2.22° C | 60% | 1026 hPa | - | - | - | - |
| 1777600116 | 2.78° C | 56% | 1026 hPa | - | - | - | - |
| 1777599216 | 2.78° C | 56% | 1026 hPa | - | - | - | - |
| 1777598316 | 2.78° C | 56% | 1026 hPa | - | - | - | - |
| 1777597416 | 2.78° C | 56% | 1026 hPa | - | - | - | - |
| 1777596516 | 5° C | 45% | 1026 hPa | - | - | - | - |
| 1777595615 | 5° C | 45% | 1026 hPa | - | - | - | - |
| 1777594715 | 5° C | 45% | 1026 hPa | - | - | - | - |
| 1777593815 | 5° C | 45% | 1026 hPa | - | - | - | - |
| 1777592916 | 6.11° C | 42% | 1026 hPa | - | - | - | - |
| 1777592015 | 6.11° C | 42% | 1026 hPa | - | - | - | - |
| 1777591116 | 5° C | 49% | 1026 hPa | - | - | - | - |
| 1777590215 | 5° C | 49% | 1026 hPa | - | - | - | - |
| 1777589315 | 7.22° C | 39% | 1026 hPa | - | - | - | - |
| 1777588415 | 7.22° C | 39% | 1026 hPa | - | - | - | - |
* Rain since midnight (hover to see other rain measurements)
** Current wind speed in m/s (hover to see current wind gust speed)